Airfield :
LOGIN :

Register | Disclaimer

   EN    FR    IT 

 










Legend :    VFR   Marginal VFR   IFR   Intensive IFR   Very Intensive IFR
Visi :
Ceiling :
>= 8 km
>= 3000ft
5 to 8 km
1000 to 3000 ft
1500m to 5 km
500 to 1000 ft
800 to 1500m
200 to 500 ft
< 800m
< 200 ft
Symbols :   Thunderstorms  Fog  Heavy snow  Heavy precipitations  Wind > 20 kt
SIGMETs :     Misc.  Thunderstorms  Icing  Turbulence  Mountain Waves  Volcanic Ashes







- Airport Elevation : 289 ft
- IATA code : ZAD


LDZD - Zadar

CURRENT METAR :
  • 221230Z 16021KT 9999 FEW040 19/09 Q1014 TEMPO 16020G30KT

EXPIRED METARs :
  • 221200Z 16021KT 130V200 9999 FEW040 20/09 Q1014 TEMPO 16020G30KT
  • 221130Z 16019KT 120V200 9999 FEW040 20/09 Q1014 NOSIG
  • 221100Z 17019KT 140V200 9999 FEW040 20/08 Q1015 NOSIG
  • 221030Z 15018KT 120V200 9999 FEW040 20/06 Q1015 NOSIG
  • 221000Z 16017KT 130V190 9999 FEW040 20/08 Q1015 NOSIG

TAF TAF LDZD
Valid from the 22 at 12:00 until the 23 at 12:00 UTC


221125Z 2212/2312 16018KT 9999 SCT040 TX20/2212Z TN11/2303Z
TEMPO 2213/2217 16020G30KT
TEMPO 2223/2305 4000 RA BKN012 OVC030
TEMPO 2300/2312 14025G35KT
No reported NOTAMs for that airfield.



MET'MAP, your aeronautical weather chart ! - Copyright ORBIFLY December 2007 - Disclaimer

ORBIFLY MET'MAP TEAM :

Programming & Development : Alexandra Zaïnal
Concept & Development : Baudouin d'Aumeries
Co-Development & Prog : Marc-Olivier Méhu
Technical & hardware support : Manuel Goepfert

Contact : metmap@orbifly.com




SOURCES & CREDITS :

   NOAA